createdAt,value
2023-04-29T00:02:55.826Z,7.00
2023-04-29T00:06:12.772Z,6.89
2023-04-29T00:09:29.242Z,6.84
2023-04-29T00:12:45.500Z,6.88
2023-04-29T00:16:02.314Z,6.93
2023-04-29T00:19:19.274Z,6.89
2023-04-29T00:22:35.491Z,6.77
2023-04-29T00:25:53.790Z,6.59
2023-04-29T00:29:10.092Z,6.46
2023-04-29T00:32:26.522Z,6.53
2023-04-29T00:35:43.019Z,6.54
2023-04-29T00:38:59.673Z,6.48
2023-04-29T00:42:16.883Z,6.47
2023-04-29T00:45:33.478Z,6.52
2023-04-29T00:48:49.832Z,6.48
2023-04-29T00:52:09.003Z,6.50
2023-04-29T00:55:25.648Z,6.54
2023-04-29T00:58:42.093Z,6.51
2023-04-29T01:01:58.919Z,6.45
2023-04-29T01:05:18.905Z,6.32
2023-04-29T01:08:40.026Z,6.19
2023-04-29T01:12:08.175Z,6.20
2023-04-29T01:15:29.461Z,6.21
2023-04-29T01:18:51.470Z,6.18
2023-04-29T01:22:09.623Z,6.02
2023-04-29T01:25:26.578Z,5.99
2023-04-29T01:29:06.572Z,5.97
2023-04-29T01:32:28.922Z,6.01
2023-04-29T01:35:54.668Z,6.10
2023-04-29T01:39:18.282Z,6.22
2023-04-29T01:42:42.281Z,6.35
2023-04-29T01:46:05.271Z,6.40
2023-04-29T01:49:23.002Z,6.48
2023-04-29T01:52:39.332Z,6.59
2023-04-29T01:55:55.653Z,6.58
2023-04-29T01:59:13.721Z,6.66
2023-04-29T02:02:32.319Z,6.67
2023-04-29T02:05:51.468Z,6.84
2023-04-29T02:09:08.093Z,7.01
2023-04-29T02:12:24.854Z,7.17
2023-04-29T02:15:41.234Z,7.16
2023-04-29T02:18:57.932Z,7.11
2023-04-29T02:22:14.329Z,7.22
2023-04-29T02:25:31.378Z,7.27
2023-04-29T02:28:48.127Z,7.36
2023-04-29T02:32:04.400Z,7.40
2023-04-29T02:35:21.896Z,7.50
2023-04-29T02:38:38.197Z,7.54
2023-04-29T02:41:54.429Z,7.62
2023-04-29T02:45:11.373Z,7.67
2023-04-29T02:48:27.759Z,7.73
2023-04-29T02:51:44.069Z,7.78
2023-04-29T02:55:00.455Z,7.80
2023-04-29T02:58:16.867Z,7.72
2023-04-29T03:01:33.220Z,7.72
2023-04-29T03:04:49.605Z,7.71
2023-04-29T03:08:06.137Z,7.73
2023-04-29T03:11:24.700Z,7.72
2023-04-29T03:14:42.074Z,7.75
2023-04-29T03:18:00.240Z,7.76
2023-04-29T03:21:16.894Z,7.79
2023-04-29T03:24:33.553Z,7.83
2023-04-29T03:27:50.172Z,7.83
2023-04-29T03:31:06.631Z,7.83
2023-04-29T03:34:23.177Z,7.85
2023-04-29T03:37:44.615Z,7.84
2023-04-29T03:41:03.468Z,7.90
2023-04-29T03:44:20.138Z,7.84
2023-04-29T03:47:37.136Z,7.83
2023-04-29T03:50:54.077Z,7.83
2023-04-29T03:54:10.924Z,7.72
2023-04-29T03:57:27.886Z,7.72
2023-04-29T04:00:44.418Z,7.76
2023-04-29T04:04:02.622Z,7.79
2023-04-29T04:07:20.225Z,7.82
2023-04-29T04:10:38.600Z,7.77
2023-04-29T04:13:56.664Z,7.39
2023-04-29T04:17:13.271Z,7.46
2023-04-29T04:20:29.666Z,7.50
2023-04-29T04:23:47.358Z,7.57
2023-04-29T04:27:05.352Z,7.66
2023-04-29T04:30:23.836Z,7.70
2023-04-29T04:33:40.170Z,7.73
2023-04-29T04:36:56.960Z,7.75
2023-04-29T04:40:16.102Z,7.78
2023-04-29T04:43:34.064Z,7.84
2023-04-29T04:46:51.626Z,7.82
2023-04-29T04:50:10.317Z,7.85
2023-04-29T04:53:26.684Z,7.90
2023-04-29T04:56:44.939Z,7.98
2023-04-29T05:00:01.529Z,7.94
2023-04-29T05:03:18.292Z,7.97
2023-04-29T05:06:34.999Z,8.02
2023-04-29T05:09:51.633Z,7.96
2023-04-29T05:13:08.355Z,7.93
2023-04-29T05:16:28.264Z,7.98
2023-04-29T05:19:46.621Z,7.93
2023-04-29T05:23:02.969Z,7.91
2023-04-29T05:26:20.937Z,7.81
2023-04-29T05:29:39.076Z,7.67
2023-04-29T05:32:57.261Z,7.83
2023-04-29T05:36:14.531Z,7.88
2023-04-29T05:39:30.873Z,7.89
2023-04-29T05:42:48.892Z,7.99
2023-04-29T05:46:07.511Z,8.06
2023-04-29T05:49:23.985Z,8.15
2023-04-29T05:52:40.430Z,8.24
2023-04-29T05:55:57.888Z,8.26
2023-04-29T05:59:14.322Z,8.28
2023-04-29T06:02:32.432Z,8.34
2023-04-29T06:05:49.791Z,8.30
2023-04-29T06:09:27.936Z,8.32
2023-04-29T06:12:47.632Z,8.32
2023-04-29T06:16:05.080Z,8.41
2023-04-29T06:19:22.566Z,8.36
2023-04-29T06:22:38.952Z,8.45
2023-04-29T06:25:55.451Z,8.57
2023-04-29T06:29:12.332Z,8.69
2023-04-29T06:32:29.613Z,8.74
2023-04-29T06:35:48.917Z,8.89
2023-04-29T06:39:23.505Z,9.06
2023-04-29T06:42:42.210Z,9.22
2023-04-29T06:46:09.445Z,9.33
2023-04-29T06:49:27.989Z,9.47
2023-04-29T06:52:44.515Z,9.60
2023-04-29T06:56:01.081Z,9.69
2023-04-29T06:59:17.701Z,9.83
2023-04-29T07:02:34.891Z,9.93
2023-04-29T07:05:53.144Z,10.05
2023-04-29T07:09:13.114Z,10.16
2023-04-29T07:12:29.493Z,10.27
2023-04-29T07:15:46.661Z,10.38
2023-04-29T07:19:03.046Z,10.49
2023-04-29T07:22:19.496Z,10.65
2023-04-29T07:25:36.960Z,10.82
2023-04-29T07:28:56.109Z,10.99
2023-04-29T07:32:13.721Z,11.32
2023-04-29T07:35:30.476Z,12.00
2023-04-29T07:38:47.079Z,12.70
2023-04-29T07:42:04.031Z,13.31
2023-04-29T07:45:21.056Z,13.97
2023-04-29T07:48:39.223Z,14.20
2023-04-29T07:51:55.532Z,14.63
2023-04-29T07:55:13.290Z,15.23
2023-04-29T07:58:29.710Z,15.40
2023-04-29T08:01:46.099Z,15.25
2023-04-29T08:05:03.815Z,15.58
2023-04-29T08:08:20.833Z,15.45
2023-04-29T08:11:40.882Z,15.57
2023-04-29T08:14:58.961Z,15.85
2023-04-29T08:19:09.919Z,15.91
2023-04-29T08:22:26.524Z,15.49
2023-04-29T08:25:43.068Z,15.23
2023-04-29T08:28:59.710Z,15.07
2023-04-29T08:32:16.941Z,14.97
2023-04-29T08:35:34.449Z,14.90
2023-04-29T08:38:53.036Z,14.96
2023-04-29T08:42:15.491Z,14.87
2023-04-29T08:45:35.154Z,14.73
2023-04-29T08:48:52.147Z,14.56
2023-04-29T08:52:08.764Z,14.59
2023-04-29T08:55:25.538Z,14.62
2023-04-29T08:58:45.386Z,14.55
2023-04-29T09:02:04.354Z,14.43
2023-04-29T09:05:21.403Z,14.52
2023-04-29T09:08:38.365Z,14.56
2023-04-29T09:11:56.415Z,14.71
2023-04-29T09:15:14.673Z,14.84
2023-04-29T09:18:53.079Z,14.96
2023-04-29T09:22:11.008Z,15.01
2023-04-29T09:25:28.660Z,15.15
2023-04-29T09:28:48.684Z,15.30
2023-04-29T09:32:05.098Z,15.56
2023-04-29T09:35:35.557Z,15.69
2023-04-29T09:39:02.850Z,15.94
2023-04-29T09:42:19.933Z,16.13
2023-04-29T09:45:48.304Z,16.09
2023-04-29T09:49:05.542Z,16.33
2023-04-29T09:52:25.385Z,16.23
2023-04-29T09:55:42.385Z,16.46
2023-04-29T09:58:58.771Z,16.37
2023-04-29T10:02:21.843Z,16.41
2023-04-29T10:05:40.878Z,16.34
2023-04-29T10:08:58.350Z,16.26
2023-04-29T10:12:15.664Z,16.34
2023-04-29T10:15:38.860Z,16.43
2023-04-29T10:19:00.798Z,16.53
2023-04-29T10:22:22.188Z,16.55
2023-04-29T10:25:40.970Z,16.68
2023-04-29T10:29:00.182Z,16.80
2023-04-29T10:32:18.373Z,16.95
2023-04-29T10:35:34.918Z,16.80
2023-04-29T10:38:56.404Z,16.59
2023-04-29T10:42:21.988Z,16.60
2023-04-29T10:45:39.414Z,16.36
2023-04-29T10:48:57.647Z,16.45
2023-04-29T10:52:16.498Z,16.32
2023-04-29T10:55:34.215Z,16.40
2023-04-29T10:58:54.716Z,16.44
2023-04-29T11:02:11.331Z,16.51
2023-04-29T11:05:37.488Z,16.50
2023-04-29T11:08:56.070Z,16.61
2023-04-29T11:12:15.945Z,16.63
2023-04-29T11:15:33.525Z,16.77
2023-04-29T11:19:15.914Z,16.89
2023-04-29T11:22:39.329Z,17.06
2023-04-29T11:25:55.771Z,17.07
2023-04-29T11:29:12.856Z,16.93
2023-04-29T11:32:32.364Z,16.91
2023-04-29T11:35:49.800Z,16.87
2023-04-29T11:39:07.768Z,16.76
2023-04-29T11:42:28.855Z,16.65
2023-04-29T11:45:48.091Z,16.50
2023-04-29T11:49:06.282Z,16.34
2023-04-29T11:52:23.541Z,16.22
2023-04-29T11:55:40.071Z,16.12
2023-04-29T11:58:57.705Z,16.28
2023-04-29T12:02:14.297Z,16.24
2023-04-29T12:05:32.789Z,16.31
2023-04-29T12:08:49.320Z,16.30
2023-04-29T12:12:07.898Z,16.30
2023-04-29T12:15:24.845Z,16.28
2023-04-29T12:18:42.092Z,16.31
2023-04-29T12:22:01.811Z,16.28
2023-04-29T12:25:19.617Z,16.31
2023-04-29T12:28:38.140Z,16.29
2023-04-29T12:31:57.531Z,16.28
2023-04-29T12:35:24.570Z,16.26
2023-04-29T12:38:41.911Z,16.22
2023-04-29T12:42:03.973Z,16.24
2023-04-29T12:45:37.209Z,16.23
2023-04-29T12:48:55.150Z,16.24
2023-04-29T12:52:11.823Z,16.24
2023-04-29T12:55:28.546Z,16.21
2023-04-29T12:58:46.545Z,16.13
2023-04-29T13:02:02.887Z,16.11
2023-04-29T13:05:20.003Z,16.11
2023-04-29T13:08:38.812Z,16.10
2023-04-29T13:11:55.204Z,16.10
2023-04-29T13:15:13.573Z,16.12
2023-04-29T13:18:31.425Z,16.09
2023-04-29T13:21:49.846Z,16.04
2023-04-29T13:25:06.172Z,15.99
2023-04-29T13:28:23.220Z,15.99
2023-04-29T13:31:39.598Z,15.96
2023-04-29T13:34:57.354Z,15.93
2023-04-29T13:38:13.643Z,15.94
2023-04-29T13:41:34.490Z,15.88
2023-04-29T13:48:52.392Z,15.79
2023-04-29T13:52:32.260Z,15.80
2023-04-29T13:55:58.711Z,15.77
2023-04-29T14:05:11.483Z,15.76
2023-04-29T14:08:28.500Z,15.77
2023-04-29T14:11:44.575Z,15.77
2023-04-29T14:15:01.019Z,15.67
2023-04-29T14:18:17.870Z,15.66
2023-04-29T14:21:34.686Z,15.62
2023-04-29T14:24:51.887Z,15.60
2023-04-29T14:28:09.532Z,15.56
2023-04-29T14:31:25.790Z,15.52
2023-04-29T14:34:42.206Z,15.43
2023-04-29T14:37:58.760Z,15.41
2023-04-29T14:41:18.865Z,15.37
2023-04-29T14:44:35.501Z,15.39
2023-04-29T14:47:54.249Z,15.37
2023-04-29T14:51:11.725Z,15.34
2023-04-29T14:54:28.913Z,15.43
2023-04-29T14:57:45.906Z,15.41
2023-04-29T15:01:02.402Z,15.31
2023-04-29T15:04:18.724Z,15.31
2023-04-29T15:07:35.433Z,15.36
2023-04-29T15:10:52.143Z,15.41
2023-04-29T15:14:08.539Z,15.37
2023-04-29T15:17:25.091Z,15.45
2023-04-29T15:20:46.074Z,15.46
2023-04-29T15:24:03.190Z,15.49
2023-04-29T15:27:20.678Z,15.47
2023-04-29T15:30:37.694Z,15.44
2023-04-29T15:33:54.338Z,15.48
2023-04-29T15:37:10.843Z,15.51
2023-04-29T15:40:27.843Z,15.55
2023-04-29T15:43:51.267Z,15.53
2023-04-29T15:47:07.780Z,15.54
2023-04-29T15:50:24.311Z,15.61
2023-04-29T15:53:40.587Z,15.68
2023-04-29T15:56:58.406Z,15.65
2023-04-29T16:00:17.519Z,15.66
2023-04-29T16:03:31.919Z,15.68
2023-04-29T16:06:48.238Z,15.61
2023-04-29T16:10:05.414Z,15.52
2023-04-29T16:13:22.081Z,15.51
2023-04-29T16:16:38.793Z,15.48
2023-04-29T16:19:55.582Z,15.32
2023-04-29T16:23:12.454Z,15.28
2023-04-29T16:26:29.051Z,15.28
2023-04-29T16:29:46.119Z,15.31
2023-04-29T16:33:02.900Z,15.34
2023-04-29T16:36:19.636Z,15.31
2023-04-29T16:39:35.923Z,15.29
2023-04-29T16:42:52.437Z,15.28
2023-04-29T16:46:09.040Z,15.12
2023-04-29T16:49:29.912Z,15.03
2023-04-29T16:52:46.549Z,14.96
2023-04-29T16:56:04.047Z,14.97
2023-04-29T16:59:20.755Z,14.99
2023-04-29T17:02:38.245Z,15.00
2023-04-29T17:05:55.074Z,15.01
2023-04-29T17:09:12.435Z,15.02
2023-04-29T17:12:29.240Z,14.90
2023-04-29T17:15:46.133Z,14.78
2023-04-29T17:19:03.356Z,14.75
2023-04-29T17:22:21.413Z,14.78
2023-04-29T17:25:39.525Z,14.75
2023-04-29T17:28:56.035Z,14.62
2023-04-29T17:32:17.384Z,14.50
2023-04-29T17:35:31.704Z,14.44
2023-04-29T17:38:47.816Z,14.36
2023-04-29T17:42:04.654Z,14.32
2023-04-29T17:45:22.531Z,14.25
2023-04-29T17:48:39.101Z,14.24
2023-04-29T17:51:55.706Z,14.17
2023-04-29T17:55:13.062Z,14.17
2023-04-29T17:58:29.862Z,13.96
2023-04-29T18:01:46.492Z,13.79
2023-04-29T18:05:02.914Z,13.67
2023-04-29T18:08:22.204Z,13.51
2023-04-29T18:11:38.842Z,13.46
2023-04-29T18:14:55.327Z,13.40
2023-04-29T18:18:13.885Z,13.22
2023-04-29T18:21:37.514Z,13.06
2023-04-29T18:24:54.084Z,13.01
2023-04-29T18:28:23.534Z,13.04
2023-04-29T18:31:31.690Z,12.89
2023-04-29T18:34:52.274Z,12.72
2023-04-29T18:38:13.445Z,12.71
2023-04-29T18:41:30.027Z,12.69
2023-04-29T18:44:48.494Z,12.64
2023-04-29T18:48:07.064Z,12.65
2023-04-29T18:51:24.057Z,12.64
2023-04-29T18:54:42.369Z,12.70
2023-04-29T18:58:03.077Z,12.73
2023-04-29T19:01:23.782Z,12.65
2023-04-29T19:04:48.645Z,12.70
2023-04-29T19:08:05.643Z,12.67
2023-04-29T19:11:27.362Z,12.65
2023-04-29T19:14:51.729Z,12.62
2023-04-29T19:18:12.332Z,12.62
2023-04-29T19:21:36.502Z,12.55
2023-04-29T19:24:53.755Z,12.53
2023-04-29T19:28:28.301Z,12.52
2023-04-29T19:31:38.274Z,12.46
2023-04-29T19:34:58.986Z,12.41
2023-04-29T19:38:15.927Z,12.39
2023-04-29T19:41:35.185Z,12.38
2023-04-29T19:44:55.306Z,12.27
2023-04-29T19:48:12.769Z,12.27
2023-04-29T19:51:30.625Z,12.18
2023-04-29T19:54:47.558Z,12.02
2023-04-29T19:58:04.070Z,12.08
2023-04-29T20:01:21.154Z,12.00
2023-04-29T20:04:37.990Z,11.94
2023-04-29T20:07:54.679Z,11.91
2023-04-29T20:11:12.364Z,11.91
2023-04-29T20:14:29.335Z,11.67
2023-04-29T20:17:46.230Z,11.70
2023-04-29T20:21:03.228Z,11.68
2023-04-29T20:24:19.965Z,11.59
2023-04-29T20:27:36.770Z,11.59
2023-04-29T20:30:53.644Z,11.63
2023-04-29T20:34:10.249Z,11.58
2023-04-29T20:37:26.855Z,11.70
2023-04-29T20:40:44.732Z,11.71
2023-04-29T20:44:01.227Z,11.68
2023-04-29T20:47:18.218Z,11.78
2023-04-29T20:50:34.887Z,11.80
2023-04-29T20:53:51.515Z,11.64
2023-04-29T20:57:08.607Z,11.58
2023-04-29T21:00:26.399Z,11.50
2023-04-29T21:03:43.053Z,11.54
2023-04-29T21:06:59.693Z,11.51
2023-04-29T21:10:20.596Z,11.62
2023-04-29T21:13:37.265Z,11.65
2023-04-29T21:16:55.474Z,11.57
2023-04-29T21:20:37.986Z,11.58
2023-04-29T21:24:11.532Z,11.55
2023-04-29T21:27:27.944Z,11.55
2023-04-29T21:30:44.516Z,11.53
2023-04-29T21:34:01.184Z,11.51
2023-04-29T21:37:17.574Z,11.56
2023-04-29T21:40:34.042Z,11.64
2023-04-29T21:43:50.554Z,11.61
2023-04-29T21:47:10.201Z,11.58
2023-04-29T21:50:27.780Z,11.64
2023-04-29T21:53:44.476Z,11.73
2023-04-29T21:57:00.997Z,11.74
2023-04-29T22:00:28.781Z,11.75
2023-04-29T22:03:45.123Z,11.70
2023-04-29T22:07:01.989Z,11.76
2023-04-29T22:10:19.398Z,11.77
2023-04-29T22:13:35.726Z,11.79
2023-04-29T22:16:52.291Z,11.75
2023-04-29T22:20:08.925Z,11.72
2023-04-29T22:23:25.582Z,11.74
2023-04-29T22:26:41.962Z,11.78
2023-04-29T22:29:58.347Z,11.81
2023-04-29T22:33:14.840Z,11.83
2023-04-29T22:36:32.456Z,11.85
2023-04-29T22:39:51.228Z,11.82
2023-04-29T22:43:07.895Z,11.84
2023-04-29T22:46:24.403Z,11.83
2023-04-29T22:49:41.784Z,11.75
2023-04-29T22:52:58.428Z,11.76
2023-04-29T22:56:15.514Z,11.78
2023-04-29T22:59:31.770Z,11.73
2023-04-29T23:02:48.580Z,11.69
2023-04-29T23:06:08.129Z,11.72
2023-04-29T23:09:24.578Z,11.75
2023-04-29T23:12:43.871Z,11.75
2023-04-29T23:15:58.855Z,11.71
2023-04-29T23:19:15.080Z,11.73
2023-04-29T23:22:31.449Z,11.76
2023-04-29T23:25:47.931Z,11.77
2023-04-29T23:29:04.323Z,11.80
2023-04-29T23:32:21.673Z,11.78
2023-04-29T23:35:37.968Z,11.77
2023-04-29T23:38:54.891Z,11.84
2023-04-29T23:42:11.320Z,11.79
2023-04-29T23:45:27.904Z,11.81
2023-04-29T23:48:44.208Z,11.79
2023-04-29T23:52:00.511Z,11.82
2023-04-29T23:55:18.849Z,11.84
2023-04-29T23:58:35.113Z,11.81
